sensor_id;sensor_type;location;lat;lon;timestamp;temperature;humidity
23520;DHT22;11936;50.820;4.336;2022-09-09T00:12:33;17.50;99.90
23520;DHT22;11936;50.820;4.336;2022-09-09T00:15:04;17.60;99.90
23520;DHT22;11936;50.820;4.336;2022-09-09T00:17:57;17.60;99.90
23520;DHT22;11936;50.820;4.336;2022-09-09T00:20:34;17.70;99.90
23520;DHT22;11936;50.820;4.336;2022-09-09T00:23:30;17.50;99.90
23520;DHT22;11936;50.820;4.336;2022-09-09T00:26:09;17.50;99.90
23520;DHT22;11936;50.820;4.336;2022-09-09T00:28:56;17.40;99.90
23520;DHT22;11936;50.820;4.336;2022-09-09T00:31:28;17.40;99.90
23520;DHT22;11936;50.820;4.336;2022-09-09T00:33:56;17.40;99.90
23520;DHT22;11936;50.820;4.336;2022-09-09T00:36:26;17.50;99.90
23520;DHT22;11936;50.820;4.336;2022-09-09T00:38:58;17.50;99.90
23520;DHT22;11936;50.820;4.336;2022-09-09T00:47:12;17.50;99.90
23520;DHT22;11936;50.820;4.336;2022-09-09T00:55:07;17.30;99.90
23520;DHT22;11936;50.820;4.336;2022-09-09T00:57:36;17.40;99.90
23520;DHT22;11936;50.820;4.336;2022-09-09T01:01:08;17.30;99.90
23520;DHT22;11936;50.820;4.336;2022-09-09T01:06:12;17.30;99.90
23520;DHT22;11936;50.820;4.336;2022-09-09T01:11:52;17.40;99.90
23520;DHT22;11936;50.820;4.336;2022-09-09T01:19:55;17.40;99.90
23520;DHT22;11936;50.820;4.336;2022-09-09T01:22:37;17.40;99.90
23520;DHT22;11936;50.820;4.336;2022-09-09T01:27:53;17.30;99.90
23520;DHT22;11936;50.820;4.336;2022-09-09T01:30:21;17.10;99.90
23520;DHT22;11936;50.820;4.336;2022-09-09T01:32:50;17.20;99.90
23520;DHT22;11936;50.820;4.336;2022-09-09T01:35:23;17.20;99.90
23520;DHT22;11936;50.820;4.336;2022-09-09T01:37:52;17.20;99.90
23520;DHT22;11936;50.820;4.336;2022-09-09T01:40:17;17.20;99.90
23520;DHT22;11936;50.820;4.336;2022-09-09T01:42:43;17.30;99.90
23520;DHT22;11936;50.820;4.336;2022-09-09T01:45:09;17.20;99.90
23520;DHT22;11936;50.820;4.336;2022-09-09T01:47:35;17.30;99.90
23520;DHT22;11936;50.820;4.336;2022-09-09T01:50:02;17.30;99.90
23520;DHT22;11936;50.820;4.336;2022-09-09T01:52:29;17.20;99.90
23520;DHT22;11936;50.820;4.336;2022-09-09T01:54:55;17.20;99.90
23520;DHT22;11936;50.820;4.336;2022-09-09T01:57:26;17.20;99.90
23520;DHT22;11936;50.820;4.336;2022-09-09T02:00:11;17.00;99.90
23520;DHT22;11936;50.820;4.336;2022-09-09T02:03:16;17.10;99.90
23520;DHT22;11936;50.820;4.336;2022-09-09T02:08:47;17.10;99.90
23520;DHT22;11936;50.820;4.336;2022-09-09T02:11:18;17.00;99.90
23520;DHT22;11936;50.820;4.336;2022-09-09T02:13:48;16.90;99.90
23520;DHT22;11936;50.820;4.336;2022-09-09T02:21:51;17.00;99.90
23520;DHT22;11936;50.820;4.336;2022-09-09T02:24:18;17.10;99.90
23520;DHT22;11936;50.820;4.336;2022-09-09T02:26:46;17.10;99.90
23520;DHT22;11936;50.820;4.336;2022-09-09T02:29:19;17.10;99.90
23520;DHT22;11936;50.820;4.336;2022-09-09T02:31:47;17.00;99.90
23520;DHT22;11936;50.820;4.336;2022-09-09T02:34:16;17.00;99.90
23520;DHT22;11936;50.820;4.336;2022-09-09T02:36:43;16.90;99.90
23520;DHT22;11936;50.820;4.336;2022-09-09T02:39:11;16.90;99.90
23520;DHT22;11936;50.820;4.336;2022-09-09T02:41:40;17.00;99.90
23520;DHT22;11936;50.820;4.336;2022-09-09T02:44:17;17.00;99.90
23520;DHT22;11936;50.820;4.336;2022-09-09T02:50:06;16.90;99.90
23520;DHT22;11936;50.820;4.336;2022-09-09T02:58:06;16.90;99.90
23520;DHT22;11936;50.820;4.336;2022-09-09T03:00:33;16.90;99.90
23520;DHT22;11936;50.820;4.336;2022-09-09T03:03:04;16.80;99.90
23520;DHT22;11936;50.820;4.336;2022-09-09T03:05:30;16.80;99.90
23520;DHT22;11936;50.820;4.336;2022-09-09T03:07:57;16.80;99.90
23520;DHT22;11936;50.820;4.336;2022-09-09T03:10:23;16.90;99.90
23520;DHT22;11936;50.820;4.336;2022-09-09T03:12:48;16.90;99.90
23520;DHT22;11936;50.820;4.336;2022-09-09T03:15:14;16.90;99.90
23520;DHT22;11936;50.820;4.336;2022-09-09T03:17:40;16.90;99.90
23520;DHT22;11936;50.820;4.336;2022-09-09T03:20:06;17.00;99.90
23520;DHT22;11936;50.820;4.336;2022-09-09T03:22:32;17.10;99.90
23520;DHT22;11936;50.820;4.336;2022-09-09T03:24:58;17.00;99.90
23520;DHT22;11936;50.820;4.336;2022-09-09T03:27:23;17.10;99.90
23520;DHT22;11936;50.820;4.336;2022-09-09T03:29:49;17.00;99.90
23520;DHT22;11936;50.820;4.336;2022-09-09T03:32:18;16.90;99.90
23520;DHT22;11936;50.820;4.336;2022-09-09T03:34:44;17.00;99.90
23520;DHT22;11936;50.820;4.336;2022-09-09T03:37:10;16.90;99.90
23520;DHT22;11936;50.820;4.336;2022-09-09T03:39:36;16.90;99.90
23520;DHT22;11936;50.820;4.336;2022-09-09T03:42:01;16.80;99.90
23520;DHT22;11936;50.820;4.336;2022-09-09T03:44:29;16.70;99.90
23520;DHT22;11936;50.820;4.336;2022-09-09T03:46:55;16.70;99.90
23520;DHT22;11936;50.820;4.336;2022-09-09T03:49:21;16.70;99.90
23520;DHT22;11936;50.820;4.336;2022-09-09T03:51:48;16.80;99.90
23520;DHT22;11936;50.820;4.336;2022-09-09T03:54:13;16.90;99.90
23520;DHT22;11936;50.820;4.336;2022-09-09T03:56:39;16.70;99.90
23520;DHT22;11936;50.820;4.336;2022-09-09T03:59:06;16.70;99.90
23520;DHT22;11936;50.820;4.336;2022-09-09T04:01:34;16.90;99.90
23520;DHT22;11936;50.820;4.336;2022-09-09T04:03:59;16.80;99.90
23520;DHT22;11936;50.820;4.336;2022-09-09T04:06:26;16.80;99.90
23520;DHT22;11936;50.820;4.336;2022-09-09T04:08:52;16.90;99.90
23520;DHT22;11936;50.820;4.336;2022-09-09T04:11:18;16.90;99.90
23520;DHT22;11936;50.820;4.336;2022-09-09T04:13:44;16.80;99.90
23520;DHT22;11936;50.820;4.336;2022-09-09T04:16:11;16.70;99.90
23520;DHT22;11936;50.820;4.336;2022-09-09T04:18:38;16.90;99.90
23520;DHT22;11936;50.820;4.336;2022-09-09T04:21:04;16.90;99.90
23520;DHT22;11936;50.820;4.336;2022-09-09T04:23:32;16.90;99.90
23520;DHT22;11936;50.820;4.336;2022-09-09T04:26:00;17.00;99.90
23520;DHT22;11936;50.820;4.336;2022-09-09T04:28:28;17.00;99.90
23520;DHT22;11936;50.820;4.336;2022-09-09T04:30:55;16.80;99.90
23520;DHT22;11936;50.820;4.336;2022-09-09T04:33:23;16.80;99.90
23520;DHT22;11936;50.820;4.336;2022-09-09T04:35:51;16.70;99.90
23520;DHT22;11936;50.820;4.336;2022-09-09T04:38:19;16.70;99.90
23520;DHT22;11936;50.820;4.336;2022-09-09T04:40:49;16.70;99.90
23520;DHT22;11936;50.820;4.336;2022-09-09T04:43:15;16.70;99.90
23520;DHT22;11936;50.820;4.336;2022-09-09T04:45:46;16.60;99.90
23520;DHT22;11936;50.820;4.336;2022-09-09T04:48:12;16.50;99.90
23520;DHT22;11936;50.820;4.336;2022-09-09T04:50:39;16.40;99.90
23520;DHT22;11936;50.820;4.336;2022-09-09T04:53:06;16.50;99.90
23520;DHT22;11936;50.820;4.336;2022-09-09T04:55:32;16.50;99.90
23520;DHT22;11936;50.820;4.336;2022-09-09T04:58:03;16.50;99.90
23520;DHT22;11936;50.820;4.336;2022-09-09T05:00:29;16.40;99.90
23520;DHT22;11936;50.820;4.336;2022-09-09T05:02:55;16.30;99.90
23520;DHT22;11936;50.820;4.336;2022-09-09T05:05:20;16.40;99.90
23520;DHT22;11936;50.820;4.336;2022-09-09T05:07:46;16.40;99.90
23520;DHT22;11936;50.820;4.336;2022-09-09T05:10:12;16.30;99.90
23520;DHT22;11936;50.820;4.336;2022-09-09T05:12:39;16.40;99.90
23520;DHT22;11936;50.820;4.336;2022-09-09T05:15:05;16.50;99.90
23520;DHT22;11936;50.820;4.336;2022-09-09T05:17:31;16.50;99.90
23520;DHT22;11936;50.820;4.336;2022-09-09T05:19:56;16.60;99.90
23520;DHT22;11936;50.820;4.336;2022-09-09T05:22:22;16.60;99.90
23520;DHT22;11936;50.820;4.336;2022-09-09T05:24:49;16.50;99.90
23520;DHT22;11936;50.820;4.336;2022-09-09T05:27:17;16.50;99.90
23520;DHT22;11936;50.820;4.336;2022-09-09T05:29:44;16.50;99.90
23520;DHT22;11936;50.820;4.336;2022-09-09T05:32:10;16.50;99.90
23520;DHT22;11936;50.820;4.336;2022-09-09T05:34:36;16.40;99.90
23520;DHT22;11936;50.820;4.336;2022-09-09T05:37:03;16.40;99.90
23520;DHT22;11936;50.820;4.336;2022-09-09T05:39:29;16.50;99.90
23520;DHT22;11936;50.820;4.336;2022-09-09T05:41:55;16.40;99.90
23520;DHT22;11936;50.820;4.336;2022-09-09T05:44:20;16.50;99.90
23520;DHT22;11936;50.820;4.336;2022-09-09T05:46:48;16.60;99.90
23520;DHT22;11936;50.820;4.336;2022-09-09T05:49:14;16.60;99.90
23520;DHT22;11936;50.820;4.336;2022-09-09T05:51:41;16.60;99.90
23520;DHT22;11936;50.820;4.336;2022-09-09T05:54:08;16.60;99.90
23520;DHT22;11936;50.820;4.336;2022-09-09T05:56:34;16.50;99.90
23520;DHT22;11936;50.820;4.336;2022-09-09T05:59:00;16.50;99.90
23520;DHT22;11936;50.820;4.336;2022-09-09T06:01:28;16.50;99.90
23520;DHT22;11936;50.820;4.336;2022-09-09T06:03:54;16.60;99.90
23520;DHT22;11936;50.820;4.336;2022-09-09T06:06:29;16.60;99.90
23520;DHT22;11936;50.820;4.336;2022-09-09T06:08:56;16.70;99.90
23520;DHT22;11936;50.820;4.336;2022-09-09T06:11:30;16.80;99.90
23520;DHT22;11936;50.820;4.336;2022-09-09T06:13:59;16.90;99.90
23520;DHT22;11936;50.820;4.336;2022-09-09T06:16:27;16.90;99.90
23520;DHT22;11936;50.820;4.336;2022-09-09T06:18:54;16.80;99.90
23520;DHT22;11936;50.820;4.336;2022-09-09T06:21:27;16.80;99.90
23520;DHT22;11936;50.820;4.336;2022-09-09T06:23:53;16.80;99.90
23520;DHT22;11936;50.820;4.336;2022-09-09T06:26:26;16.60;99.90
23520;DHT22;11936;50.820;4.336;2022-09-09T06:28:54;16.60;99.90
23520;DHT22;11936;50.820;4.336;2022-09-09T06:31:21;16.50;99.90
23520;DHT22;11936;50.820;4.336;2022-09-09T06:33:48;16.60;99.90
23520;DHT22;11936;50.820;4.336;2022-09-09T06:36:19;16.60;99.90
23520;DHT22;11936;50.820;4.336;2022-09-09T06:38:45;16.60;99.90
23520;DHT22;11936;50.820;4.336;2022-09-09T06:41:13;16.70;99.90
23520;DHT22;11936;50.820;4.336;2022-09-09T06:43:39;16.70;99.90
23520;DHT22;11936;50.820;4.336;2022-09-09T06:46:08;16.80;99.90
23520;DHT22;11936;50.820;4.336;2022-09-09T06:48:35;16.80;99.90
23520;DHT22;11936;50.820;4.336;2022-09-09T06:51:03;16.70;99.90
23520;DHT22;11936;50.820;4.336;2022-09-09T06:53:29;16.80;99.90
23520;DHT22;11936;50.820;4.336;2022-09-09T06:55:55;16.90;99.90
23520;DHT22;11936;50.820;4.336;2022-09-09T06:58:21;17.00;99.90
23520;DHT22;11936;50.820;4.336;2022-09-09T07:00:49;17.00;99.90
23520;DHT22;11936;50.820;4.336;2022-09-09T07:03:15;16.90;99.90
23520;DHT22;11936;50.820;4.336;2022-09-09T07:05:40;16.80;99.90
23520;DHT22;11936;50.820;4.336;2022-09-09T07:08:06;16.90;99.90
23520;DHT22;11936;50.820;4.336;2022-09-09T07:10:31;16.90;99.90
23520;DHT22;11936;50.820;4.336;2022-09-09T07:12:57;16.80;99.90
23520;DHT22;11936;50.820;4.336;2022-09-09T07:15:23;16.80;99.90
23520;DHT22;11936;50.820;4.336;2022-09-09T07:17:49;17.00;99.90
23520;DHT22;11936;50.820;4.336;2022-09-09T07:20:15;17.00;99.90
23520;DHT22;11936;50.820;4.336;2022-09-09T07:22:41;16.80;99.90
23520;DHT22;11936;50.820;4.336;2022-09-09T07:25:07;16.90;99.90
23520;DHT22;11936;50.820;4.336;2022-09-09T07:27:33;17.00;99.90
23520;DHT22;11936;50.820;4.336;2022-09-09T07:29:59;17.10;99.90
23520;DHT22;11936;50.820;4.336;2022-09-09T07:32:25;17.10;99.90
23520;DHT22;11936;50.820;4.336;2022-09-09T07:34:55;16.90;99.90
23520;DHT22;11936;50.820;4.336;2022-09-09T07:37:21;16.70;99.90
23520;DHT22;11936;50.820;4.336;2022-09-09T07:39:47;16.80;99.90
23520;DHT22;11936;50.820;4.336;2022-09-09T07:42:12;16.90;99.90
23520;DHT22;11936;50.820;4.336;2022-09-09T07:44:38;17.00;99.90
23520;DHT22;11936;50.820;4.336;2022-09-09T07:47:05;17.00;99.90
23520;DHT22;11936;50.820;4.336;2022-09-09T07:49:31;16.90;99.90
23520;DHT22;11936;50.820;4.336;2022-09-09T07:51:58;16.90;99.90
23520;DHT22;11936;50.820;4.336;2022-09-09T07:54:24;17.00;99.90
23520;DHT22;11936;50.820;4.336;2022-09-09T07:56:51;17.00;99.90
23520;DHT22;11936;50.820;4.336;2022-09-09T07:59:17;17.10;99.90
23520;DHT22;11936;50.820;4.336;2022-09-09T08:01:45;16.90;99.90
23520;DHT22;11936;50.820;4.336;2022-09-09T08:04:13;16.90;99.90
23520;DHT22;11936;50.820;4.336;2022-09-09T08:06:41;17.00;99.90
23520;DHT22;11936;50.820;4.336;2022-09-09T08:09:08;17.10;99.90
23520;DHT22;11936;50.820;4.336;2022-09-09T08:11:34;17.10;99.90
23520;DHT22;11936;50.820;4.336;2022-09-09T08:14:01;17.20;99.90
23520;DHT22;11936;50.820;4.336;2022-09-09T08:16:30;17.30;99.90
23520;DHT22;11936;50.820;4.336;2022-09-09T08:18:56;17.40;99.90
23520;DHT22;11936;50.820;4.336;2022-09-09T08:21:25;17.40;99.90
23520;DHT22;11936;50.820;4.336;2022-09-09T08:23:52;17.30;99.90
23520;DHT22;11936;50.820;4.336;2022-09-09T08:26:20;17.30;99.90
23520;DHT22;11936;50.820;4.336;2022-09-09T08:28:50;17.30;99.90
23520;DHT22;11936;50.820;4.336;2022-09-09T08:31:20;17.40;99.90
23520;DHT22;11936;50.820;4.336;2022-09-09T08:33:47;17.50;99.90
23520;DHT22;11936;50.820;4.336;2022-09-09T08:36:17;17.60;99.90
23520;DHT22;11936;50.820;4.336;2022-09-09T08:38:47;17.50;99.90
23520;DHT22;11936;50.820;4.336;2022-09-09T08:41:35;17.40;99.90
23520;DHT22;11936;50.820;4.336;2022-09-09T08:52:15;17.50;99.90
23520;DHT22;11936;50.820;4.336;2022-09-09T08:54:41;17.40;99.90
23520;DHT22;11936;50.820;4.336;2022-09-09T08:57:14;17.40;99.90
23520;DHT22;11936;50.820;4.336;2022-09-09T08:59:41;17.30;99.90
23520;DHT22;11936;50.820;4.336;2022-09-09T09:02:12;17.40;99.90
23520;DHT22;11936;50.820;4.336;2022-09-09T09:05:04;17.30;99.90
23520;DHT22;11936;50.820;4.336;2022-09-09T09:08:10;17.30;99.90
23520;DHT22;11936;50.820;4.336;2022-09-09T09:10:43;17.10;99.90
23520;DHT22;11936;50.820;4.336;2022-09-09T09:13:15;17.00;99.90
23520;DHT22;11936;50.820;4.336;2022-09-09T09:15:44;17.00;99.90
23520;DHT22;11936;50.820;4.336;2022-09-09T09:18:12;17.10;99.90
23520;DHT22;11936;50.820;4.336;2022-09-09T09:23:21;17.20;99.90
23520;DHT22;11936;50.820;4.336;2022-09-09T09:25:47;17.20;99.90
23520;DHT22;11936;50.820;4.336;2022-09-09T09:28:25;17.30;99.90
23520;DHT22;11936;50.820;4.336;2022-09-09T09:36:01;17.20;99.90
23520;DHT22;11936;50.820;4.336;2022-09-09T09:38:29;17.10;99.90
23520;DHT22;11936;50.820;4.336;2022-09-09T09:40:56;17.10;99.90
23520;DHT22;11936;50.820;4.336;2022-09-09T09:43:33;17.20;99.90
23520;DHT22;11936;50.820;4.336;2022-09-09T09:45:59;17.20;99.90
23520;DHT22;11936;50.820;4.336;2022-09-09T09:48:26;17.20;99.90
23520;DHT22;11936;50.820;4.336;2022-09-09T09:50:55;17.10;99.90
23520;DHT22;11936;50.820;4.336;2022-09-09T09:53:27;17.20;99.90
23520;DHT22;11936;50.820;4.336;2022-09-09T09:55:55;17.20;99.90
23520;DHT22;11936;50.820;4.336;2022-09-09T09:58:21;17.40;99.90
23520;DHT22;11936;50.820;4.336;2022-09-09T10:00:52;17.30;99.90
23520;DHT22;11936;50.820;4.336;2022-09-09T10:03:29;17.40;99.90
23520;DHT22;11936;50.820;4.336;2022-09-09T10:05:56;17.50;99.90
23520;DHT22;11936;50.820;4.336;2022-09-09T10:08:26;17.60;99.90
23520;DHT22;11936;50.820;4.336;2022-09-09T10:14:02;17.40;99.90
23520;DHT22;11936;50.820;4.336;2022-09-09T10:19:27;17.30;99.90
23520;DHT22;11936;50.820;4.336;2022-09-09T10:22:19;17.20;99.90
23520;DHT22;11936;50.820;4.336;2022-09-09T10:30:18;17.20;99.90
23520;DHT22;11936;50.820;4.336;2022-09-09T10:34:00;17.40;99.90
23520;DHT22;11936;50.820;4.336;2022-09-09T10:38:39;17.60;99.90
23520;DHT22;11936;50.820;4.336;2022-09-09T10:41:19;17.70;99.90
23520;DHT22;11936;50.820;4.336;2022-09-09T10:55:23;18.40;99.90
23520;DHT22;11936;50.820;4.336;2022-09-09T10:57:40;18.30;99.90
23520;DHT22;11936;50.820;4.336;2022-09-09T11:02:41;18.20;99.90
23520;DHT22;11936;50.820;4.336;2022-09-09T11:05:20;18.20;99.90
23520;DHT22;11936;50.820;4.336;2022-09-09T11:10:21;18.40;99.90
23520;DHT22;11936;50.820;4.336;2022-09-09T11:12:50;18.30;99.90
23520;DHT22;11936;50.820;4.336;2022-09-09T11:15:22;18.20;99.90
23520;DHT22;11936;50.820;4.336;2022-09-09T11:17:59;18.20;99.90
23520;DHT22;11936;50.820;4.336;2022-09-09T11:20:26;18.30;99.90
23520;DHT22;11936;50.820;4.336;2022-09-09T11:22:58;18.30;99.90
23520;DHT22;11936;50.820;4.336;2022-09-09T11:25:38;18.30;99.90
23520;DHT22;11936;50.820;4.336;2022-09-09T11:28:24;18.20;99.90
23520;DHT22;11936;50.820;4.336;2022-09-09T11:34:33;18.40;99.90
23520;DHT22;11936;50.820;4.336;2022-09-09T11:37:17;18.50;99.90
23520;DHT22;11936;50.820;4.336;2022-09-09T11:42:24;18.40;99.90
23520;DHT22;11936;50.820;4.336;2022-09-09T11:44:50;18.40;99.90
23520;DHT22;11936;50.820;4.336;2022-09-09T11:47:29;18.50;99.90
23520;DHT22;11936;50.820;4.336;2022-09-09T11:50:10;18.70;99.90
23520;DHT22;11936;50.820;4.336;2022-09-09T11:52:40;18.70;99.90
23520;DHT22;11936;50.820;4.336;2022-09-09T11:55:27;18.60;99.90
23520;DHT22;11936;50.820;4.336;2022-09-09T11:58:05;18.70;99.90
23520;DHT22;11936;50.820;4.336;2022-09-09T12:00:42;18.70;99.90
23520;DHT22;11936;50.820;4.336;2022-09-09T12:03:31;18.80;99.90
23520;DHT22;11936;50.820;4.336;2022-09-09T12:05:59;18.70;99.90
23520;DHT22;11936;50.820;4.336;2022-09-09T12:08:28;18.60;99.90
23520;DHT22;11936;50.820;4.336;2022-09-09T12:10:57;18.60;99.90
23520;DHT22;11936;50.820;4.336;2022-09-09T12:13:24;18.70;99.90
23520;DHT22;11936;50.820;4.336;2022-09-09T12:15:57;18.60;99.90
23520;DHT22;11936;50.820;4.336;2022-09-09T12:18:33;18.50;99.90
23520;DHT22;11936;50.820;4.336;2022-09-09T12:29:14;18.60;99.90
23520;DHT22;11936;50.820;4.336;2022-09-09T12:31:56;18.50;99.90
23520;DHT22;11936;50.820;4.336;2022-09-09T12:35:29;18.50;99.90
23520;DHT22;11936;50.820;4.336;2022-09-09T12:37:38;18.50;99.90
23520;DHT22;11936;50.820;4.336;2022-09-09T12:40:22;18.80;99.90
23520;DHT22;11936;50.820;4.336;2022-09-09T12:42:48;19.00;99.90
23520;DHT22;11936;50.820;4.336;2022-09-09T12:45:24;19.10;99.90
23520;DHT22;11936;50.820;4.336;2022-09-09T12:47:55;19.10;99.90
23520;DHT22;11936;50.820;4.336;2022-09-09T12:50:36;19.30;99.90
23520;DHT22;11936;50.820;4.336;2022-09-09T12:53:12;19.30;99.90
23520;DHT22;11936;50.820;4.336;2022-09-09T12:55:50;19.30;99.90
23520;DHT22;11936;50.820;4.336;2022-09-09T12:58:18;19.30;99.90
23520;DHT22;11936;50.820;4.336;2022-09-09T13:00:55;19.30;99.90
23520;DHT22;11936;50.820;4.336;2022-09-09T13:03:25;19.40;99.90
23520;DHT22;11936;50.820;4.336;2022-09-09T13:05:52;19.30;99.90
23520;DHT22;11936;50.820;4.336;2022-09-09T13:08:19;19.10;99.90
23520;DHT22;11936;50.820;4.336;2022-09-09T13:11:01;19.10;99.90
23520;DHT22;11936;50.820;4.336;2022-09-09T13:13:40;19.20;99.90
23520;DHT22;11936;50.820;4.336;2022-09-09T13:16:20;19.10;99.90
23520;DHT22;11936;50.820;4.336;2022-09-09T13:18:46;19.20;99.90
23520;DHT22;11936;50.820;4.336;2022-09-09T13:21:12;19.30;99.90
23520;DHT22;11936;50.820;4.336;2022-09-09T13:23:37;19.40;99.90
23520;DHT22;11936;50.820;4.336;2022-09-09T13:26:26;19.50;99.90
23520;DHT22;11936;50.820;4.336;2022-09-09T13:28:55;19.60;99.90
23520;DHT22;11936;50.820;4.336;2022-09-09T13:31:36;19.70;99.90
23520;DHT22;11936;50.820;4.336;2022-09-09T13:37:04;19.90;99.90
23520;DHT22;11936;50.820;4.336;2022-09-09T13:39:33;19.90;99.90
23520;DHT22;11936;50.820;4.336;2022-09-09T13:41:59;20.00;99.90
23520;DHT22;11936;50.820;4.336;2022-09-09T13:44:31;20.00;99.90
23520;DHT22;11936;50.820;4.336;2022-09-09T13:47:30;20.00;99.90
23520;DHT22;11936;50.820;4.336;2022-09-09T13:49:56;20.10;99.90
23520;DHT22;11936;50.820;4.336;2022-09-09T13:52:22;20.10;99.90
23520;DHT22;11936;50.820;4.336;2022-09-09T13:54:50;20.10;99.90
23520;DHT22;11936;50.820;4.336;2022-09-09T13:57:21;20.00;99.90
23520;DHT22;11936;50.820;4.336;2022-09-09T13:59:48;20.10;99.90
23520;DHT22;11936;50.820;4.336;2022-09-09T14:02:15;20.00;99.90
23520;DHT22;11936;50.820;4.336;2022-09-09T14:04:42;20.00;99.90
23520;DHT22;11936;50.820;4.336;2022-09-09T14:07:16;20.20;99.90
23520;DHT22;11936;50.820;4.336;2022-09-09T14:09:42;20.40;99.90
23520;DHT22;11936;50.820;4.336;2022-09-09T14:12:11;20.60;99.90
23520;DHT22;11936;50.820;4.336;2022-09-09T14:14:37;20.50;99.90
23520;DHT22;11936;50.820;4.336;2022-09-09T14:17:02;20.40;99.90
23520;DHT22;11936;50.820;4.336;2022-09-09T14:19:29;20.20;99.90
23520;DHT22;11936;50.820;4.336;2022-09-09T14:21:56;20.20;99.90
23520;DHT22;11936;50.820;4.336;2022-09-09T14:24:22;20.20;99.90
23520;DHT22;11936;50.820;4.336;2022-09-09T14:26:47;20.10;99.90
23520;DHT22;11936;50.820;4.336;2022-09-09T14:29:13;20.10;99.90
23520;DHT22;11936;50.820;4.336;2022-09-09T14:31:39;20.10;99.90
23520;DHT22;11936;50.820;4.336;2022-09-09T14:34:04;20.30;99.90
23520;DHT22;11936;50.820;4.336;2022-09-09T14:36:31;20.30;99.90
23520;DHT22;11936;50.820;4.336;2022-09-09T14:38:57;20.30;99.90
23520;DHT22;11936;50.820;4.336;2022-09-09T14:41:22;20.40;99.90
23520;DHT22;11936;50.820;4.336;2022-09-09T14:43:48;20.40;99.90
23520;DHT22;11936;50.820;4.336;2022-09-09T14:46:16;20.50;99.90
23520;DHT22;11936;50.820;4.336;2022-09-09T14:48:43;20.50;99.90
23520;DHT22;11936;50.820;4.336;2022-09-09T14:51:11;20.60;99.90
23520;DHT22;11936;50.820;4.336;2022-09-09T14:53:38;20.40;99.90
23520;DHT22;11936;50.820;4.336;2022-09-09T14:56:15;20.50;99.90
23520;DHT22;11936;50.820;4.336;2022-09-09T14:58:41;20.70;99.90
23520;DHT22;11936;50.820;4.336;2022-09-09T15:01:13;20.60;99.90
23520;DHT22;11936;50.820;4.336;2022-09-09T15:03:40;20.50;99.90
23520;DHT22;11936;50.820;4.336;2022-09-09T15:06:07;20.50;99.90
23520;DHT22;11936;50.820;4.336;2022-09-09T15:08:37;20.50;99.90
23520;DHT22;11936;50.820;4.336;2022-09-09T15:11:04;20.60;99.90
23520;DHT22;11936;50.820;4.336;2022-09-09T15:13:30;20.50;99.90
23520;DHT22;11936;50.820;4.336;2022-09-09T15:16:06;20.40;99.90
23520;DHT22;11936;50.820;4.336;2022-09-09T15:18:33;20.40;99.90
23520;DHT22;11936;50.820;4.336;2022-09-09T15:20:59;20.60;99.90
23520;DHT22;11936;50.820;4.336;2022-09-09T15:23:27;20.60;99.90
23520;DHT22;11936;50.820;4.336;2022-09-09T15:25:56;20.60;99.90
23520;DHT22;11936;50.820;4.336;2022-09-09T15:28:22;20.70;99.90
23520;DHT22;11936;50.820;4.336;2022-09-09T15:30:52;20.60;99.90
23520;DHT22;11936;50.820;4.336;2022-09-09T15:33:22;20.40;99.90
23520;DHT22;11936;50.820;4.336;2022-09-09T15:35:48;20.30;99.90
23520;DHT22;11936;50.820;4.336;2022-09-09T15:38:15;20.30;99.90
23520;DHT22;11936;50.820;4.336;2022-09-09T15:40:42;20.20;99.90
23520;DHT22;11936;50.820;4.336;2022-09-09T15:43:09;20.30;99.90
23520;DHT22;11936;50.820;4.336;2022-09-09T15:45:36;20.40;99.90
23520;DHT22;11936;50.820;4.336;2022-09-09T15:48:03;20.60;99.90
23520;DHT22;11936;50.820;4.336;2022-09-09T15:50:29;20.50;99.90
23520;DHT22;11936;50.820;4.336;2022-09-09T15:52:58;20.50;99.90
23520;DHT22;11936;50.820;4.336;2022-09-09T15:55:23;20.60;99.90
23520;DHT22;11936;50.820;4.336;2022-09-09T15:57:52;20.70;99.90
23520;DHT22;11936;50.820;4.336;2022-09-09T16:00:18;20.60;99.90
23520;DHT22;11936;50.820;4.336;2022-09-09T16:02:46;20.50;99.90
23520;DHT22;11936;50.820;4.336;2022-09-09T16:05:12;20.50;99.90
23520;DHT22;11936;50.820;4.336;2022-09-09T16:07:37;20.40;99.90
23520;DHT22;11936;50.820;4.336;2022-09-09T16:10:03;20.40;99.90
23520;DHT22;11936;50.820;4.336;2022-09-09T16:12:29;20.30;99.90
23520;DHT22;11936;50.820;4.336;2022-09-09T16:14:54;20.20;99.90
23520;DHT22;11936;50.820;4.336;2022-09-09T16:17:21;20.20;99.90
23520;DHT22;11936;50.820;4.336;2022-09-09T16:19:46;20.00;99.90
23520;DHT22;11936;50.820;4.336;2022-09-09T16:22:12;20.10;99.90
23520;DHT22;11936;50.820;4.336;2022-09-09T16:24:40;20.00;99.90
23520;DHT22;11936;50.820;4.336;2022-09-09T16:27:06;20.00;99.90
23520;DHT22;11936;50.820;4.336;2022-09-09T16:29:32;19.70;99.90
23520;DHT22;11936;50.820;4.336;2022-09-09T16:31:57;19.40;99.90
23520;DHT22;11936;50.820;4.336;2022-09-09T16:34:24;19.30;99.90
23520;DHT22;11936;50.820;4.336;2022-09-09T16:36:50;19.20;99.90
23520;DHT22;11936;50.820;4.336;2022-09-09T16:39:18;19.30;99.90
23520;DHT22;11936;50.820;4.336;2022-09-09T16:41:45;19.30;99.90
23520;DHT22;11936;50.820;4.336;2022-09-09T16:44:12;19.30;99.90
23520;DHT22;11936;50.820;4.336;2022-09-09T16:46:40;19.40;99.90
23520;DHT22;11936;50.820;4.336;2022-09-09T16:49:07;19.30;99.90
23520;DHT22;11936;50.820;4.336;2022-09-09T16:51:36;19.30;99.90
23520;DHT22;11936;50.820;4.336;2022-09-09T16:54:04;19.40;99.90
23520;DHT22;11936;50.820;4.336;2022-09-09T16:56:33;19.40;99.90
23520;DHT22;11936;50.820;4.336;2022-09-09T16:59:01;19.40;99.90
23520;DHT22;11936;50.820;4.336;2022-09-09T17:01:31;19.40;99.90
23520;DHT22;11936;50.820;4.336;2022-09-09T17:04:03;19.30;99.90
23520;DHT22;11936;50.820;4.336;2022-09-09T17:06:30;19.30;99.90
23520;DHT22;11936;50.820;4.336;2022-09-09T17:08:58;19.40;99.90
23520;DHT22;11936;50.820;4.336;2022-09-09T17:11:24;19.40;99.90
23520;DHT22;11936;50.820;4.336;2022-09-09T17:13:51;19.30;99.90
23520;DHT22;11936;50.820;4.336;2022-09-09T17:16:19;19.20;99.90
23520;DHT22;11936;50.820;4.336;2022-09-09T17:18:47;19.10;99.90
23520;DHT22;11936;50.820;4.336;2022-09-09T17:21:15;19.00;99.90
23520;DHT22;11936;50.820;4.336;2022-09-09T17:23:42;19.00;99.90
23520;DHT22;11936;50.820;4.336;2022-09-09T17:26:10;19.00;99.90
23520;DHT22;11936;50.820;4.336;2022-09-09T17:28:36;19.00;99.90
23520;DHT22;11936;50.820;4.336;2022-09-09T17:31:04;19.10;99.90
23520;DHT22;11936;50.820;4.336;2022-09-09T17:33:33;18.90;99.90
23520;DHT22;11936;50.820;4.336;2022-09-09T17:36:00;19.00;99.90
23520;DHT22;11936;50.820;4.336;2022-09-09T17:38:29;19.00;99.90
23520;DHT22;11936;50.820;4.336;2022-09-09T17:41:02;18.70;99.90
23520;DHT22;11936;50.820;4.336;2022-09-09T17:43:28;18.60;99.90